createdAt,value
2023-03-04T00:00:31.001Z,5.20
2023-03-04T00:02:58.259Z,5.10
2023-03-04T00:05:25.481Z,5.10
2023-03-04T00:07:53.212Z,5.20
2023-03-04T00:10:20.340Z,5.20
2023-03-04T00:12:47.594Z,5.20
2023-03-04T00:15:14.791Z,5.20
2023-03-04T00:17:42.005Z,5.20
2023-03-04T00:20:10.300Z,5.30
2023-03-04T00:22:38.311Z,5.30
2023-03-04T00:25:06.117Z,5.30
2023-03-04T00:27:33.381Z,5.30
2023-03-04T00:30:00.575Z,5.30
2023-03-04T00:32:27.750Z,5.30
2023-03-04T00:34:54.994Z,5.30
2023-03-04T00:37:22.313Z,5.40
2023-03-04T00:39:51.176Z,5.40
2023-03-04T00:42:18.428Z,5.40
2023-03-04T00:44:46.823Z,5.40
2023-03-04T00:47:13.971Z,5.40
2023-03-04T00:49:41.210Z,5.40
2023-03-04T00:52:10.188Z,5.40
2023-03-04T00:54:37.907Z,5.40
2023-03-04T00:57:05.075Z,5.40
2023-03-04T00:59:33.051Z,5.40
2023-03-04T01:02:01.084Z,5.40
2023-03-04T01:04:28.667Z,5.40
2023-03-04T01:06:55.892Z,5.40
2023-03-04T01:09:23.070Z,5.40
2023-03-04T01:11:50.736Z,5.40
2023-03-04T01:14:18.006Z,5.40
2023-03-04T01:17:09.846Z,5.40
2023-03-04T01:19:37.059Z,5.40
2023-03-04T01:22:04.289Z,5.40
2023-03-04T01:24:31.586Z,5.40
2023-03-04T01:27:00.069Z,5.30
2023-03-04T01:29:29.982Z,5.40
2023-03-04T01:31:57.539Z,5.30
2023-03-04T01:34:24.794Z,5.40
2023-03-04T01:36:52.343Z,5.30
2023-03-04T01:39:19.565Z,5.30
2023-03-04T01:41:46.782Z,5.40
2023-03-04T01:44:14.063Z,5.30
2023-03-04T01:46:47.464Z,5.30
2023-03-04T01:49:17.075Z,5.30
2023-03-04T01:51:49.464Z,5.30
2023-03-04T01:54:17.048Z,5.30
2023-03-04T01:56:46.441Z,5.30
2023-03-04T01:59:22.049Z,5.40
2023-03-04T02:01:55.143Z,5.30
2023-03-04T02:04:29.318Z,5.40
2023-03-04T02:06:57.808Z,5.40
2023-03-04T02:09:25.118Z,5.40
2023-03-04T02:11:53.243Z,5.40
2023-03-04T02:14:20.980Z,5.40
2023-03-04T02:16:49.765Z,5.40
2023-03-04T02:19:28.739Z,5.40
2023-03-04T02:21:57.291Z,5.40
2023-03-04T02:24:43.215Z,5.40
2023-03-04T02:27:10.528Z,5.50
2023-03-04T02:29:39.639Z,5.40
2023-03-04T02:32:07.076Z,5.40
2023-03-04T02:34:36.315Z,5.40
2023-03-04T02:37:04.421Z,5.40
2023-03-04T02:39:36.451Z,5.40
2023-03-04T02:42:04.559Z,5.50
2023-03-04T02:44:39.007Z,5.50
2023-03-04T02:47:10.161Z,5.50
2023-03-04T02:49:40.222Z,5.50
2023-03-04T02:52:08.894Z,5.50
2023-03-04T02:54:38.334Z,5.50
2023-03-04T02:57:09.806Z,5.50
2023-03-04T02:59:40.201Z,5.50
2023-03-04T03:02:08.475Z,5.50
2023-03-04T03:04:39.212Z,5.50
2023-03-04T03:07:09.575Z,5.50
2023-03-04T03:10:04.445Z,5.50
2023-03-04T03:12:31.686Z,5.50
2023-03-04T03:14:58.949Z,5.60
2023-03-04T03:17:51.226Z,5.60
2023-03-04T03:20:19.145Z,5.60
2023-03-04T03:22:47.891Z,5.60
2023-03-04T03:25:17.505Z,5.60
2023-03-04T03:27:44.700Z,5.60
2023-03-04T03:30:14.844Z,5.60
2023-03-04T03:32:42.128Z,5.60
2023-03-04T03:35:10.075Z,5.60
2023-03-04T03:37:37.739Z,5.60
2023-03-04T03:40:05.781Z,5.50
2023-03-04T03:42:33.413Z,5.50
2023-03-04T03:45:01.144Z,5.40
2023-03-04T03:47:28.940Z,5.40
2023-03-04T03:49:56.727Z,5.40
2023-03-04T03:52:24.065Z,5.40
2023-03-04T03:54:51.305Z,5.40
2023-03-04T03:57:18.480Z,5.50
2023-03-04T03:59:45.654Z,5.40
2023-03-04T04:02:12.899Z,5.40
2023-03-04T04:04:40.172Z,5.40
2023-03-04T04:07:07.439Z,5.50
2023-03-04T04:09:34.642Z,5.50
2023-03-04T04:12:02.356Z,5.50
2023-03-04T04:14:29.534Z,5.40
2023-03-04T04:16:56.741Z,5.40
2023-03-04T04:19:24.326Z,5.30
2023-03-04T04:21:51.932Z,5.30
2023-03-04T04:24:20.690Z,5.30
2023-03-04T04:26:47.919Z,5.20
2023-03-04T04:29:19.608Z,5.20
2023-03-04T04:31:46.845Z,5.10
2023-03-04T04:34:14.074Z,5.10
2023-03-04T04:36:41.280Z,5.00
2023-03-04T04:39:08.617Z,5.00
2023-03-04T04:41:42.403Z,4.90
2023-03-04T04:44:10.593Z,4.90
2023-03-04T04:46:38.133Z,4.90
2023-03-04T04:49:06.249Z,4.90
2023-03-04T04:51:35.123Z,4.80
2023-03-04T04:54:03.372Z,4.80
2023-03-04T04:56:30.588Z,4.80
2023-03-04T04:59:00.935Z,4.80
2023-03-04T05:01:54.138Z,4.80
2023-03-04T05:04:21.318Z,4.80
2023-03-04T05:06:48.708Z,4.90
2023-03-04T05:09:16.539Z,4.80
2023-03-04T05:11:43.696Z,4.80
2023-03-04T05:14:10.912Z,4.80
2023-03-04T05:16:38.084Z,4.80
2023-03-04T05:19:07.284Z,4.80
2023-03-04T05:21:34.470Z,4.80
2023-03-04T05:24:01.792Z,4.80
2023-03-04T05:26:29.208Z,4.70
2023-03-04T05:28:56.464Z,4.70
2023-03-04T05:31:23.716Z,4.80
2023-03-04T05:33:50.931Z,4.80
2023-03-04T05:36:18.184Z,4.80
2023-03-04T05:38:45.415Z,4.90
2023-03-04T05:41:13.670Z,4.90
2023-03-04T05:43:42.720Z,4.90
2023-03-04T05:46:15.117Z,4.90
2023-03-04T05:48:43.065Z,4.90
2023-03-04T05:51:10.969Z,4.90
2023-03-04T05:53:39.228Z,4.90
2023-03-04T05:56:11.374Z,4.80
2023-03-04T05:58:38.862Z,4.80
2023-03-04T06:01:06.449Z,4.80
2023-03-04T06:03:38.699Z,4.80
2023-03-04T06:06:06.443Z,4.80
2023-03-04T06:08:33.768Z,4.80
2023-03-04T06:11:01.140Z,4.90
2023-03-04T06:13:28.438Z,4.90
2023-03-04T06:15:58.773Z,4.90
2023-03-04T06:18:28.249Z,4.80
2023-03-04T06:21:00.856Z,4.90
2023-03-04T06:23:53.461Z,4.90
2023-03-04T06:26:20.614Z,4.90
2023-03-04T06:28:47.781Z,5.00
2023-03-04T06:31:17.204Z,5.00
2023-03-04T06:33:44.496Z,5.00
2023-03-04T06:36:37.293Z,5.00
2023-03-04T06:39:06.472Z,5.00
2023-03-04T06:41:34.442Z,5.10
2023-03-04T06:44:04.122Z,5.10
2023-03-04T06:46:36.357Z,5.10
2023-03-04T06:49:03.954Z,5.10
2023-03-04T06:51:35.282Z,5.10
2023-03-04T06:54:02.758Z,5.10
2023-03-04T06:56:30.731Z,5.20
2023-03-04T06:58:57.946Z,5.20
2023-03-04T07:01:27.888Z,5.20
2023-03-04T07:03:55.799Z,5.30
2023-03-04T07:06:26.067Z,5.30
2023-03-04T07:08:53.798Z,5.30
2023-03-04T07:11:22.220Z,5.30
2023-03-04T07:13:50.234Z,5.30
2023-03-04T07:16:20.398Z,5.30
2023-03-04T07:18:48.079Z,5.40
2023-03-04T07:21:15.893Z,5.40
2023-03-04T07:23:43.864Z,5.40
2023-03-04T07:26:11.172Z,5.40
2023-03-04T07:28:39.414Z,5.40
2023-03-04T07:31:21.257Z,5.30
2023-03-04T07:33:48.798Z,5.30
2023-03-04T07:36:16.305Z,5.30
2023-03-04T07:38:49.187Z,5.30
2023-03-04T07:41:22.456Z,5.30
2023-03-04T07:43:50.484Z,5.30
2023-03-04T07:46:19.268Z,5.30
2023-03-04T07:48:46.464Z,5.30
2023-03-04T07:51:19.975Z,5.30
2023-03-04T07:53:51.462Z,5.30
2023-03-04T07:56:22.341Z,5.40
2023-03-04T07:58:49.775Z,5.40
2023-03-04T08:01:20.343Z,5.50
2023-03-04T08:03:48.193Z,5.50
2023-03-04T08:06:19.288Z,5.50
2023-03-04T08:08:47.234Z,5.60
2023-03-04T08:11:18.053Z,5.60
2023-03-04T08:13:46.174Z,5.50
2023-03-04T08:16:18.298Z,5.60
2023-03-04T08:18:50.089Z,5.60
2023-03-04T08:21:19.339Z,5.50
2023-03-04T08:23:47.264Z,5.50
2023-03-04T08:26:33.884Z,5.60
2023-03-04T08:29:03.668Z,5.60
2023-03-04T08:31:31.794Z,5.60
2023-03-04T08:33:59.066Z,5.60
2023-03-04T08:36:26.234Z,5.50
2023-03-04T08:38:53.456Z,5.50
2023-03-04T08:41:20.838Z,5.50
2023-03-04T08:43:48.417Z,5.60
2023-03-04T08:46:15.604Z,5.50
2023-03-04T08:48:42.916Z,5.60
2023-03-04T08:51:15.082Z,5.50
2023-03-04T08:53:42.293Z,5.50
2023-03-04T08:56:10.230Z,5.50
2023-03-04T08:58:37.496Z,5.50
2023-03-04T09:01:07.195Z,5.40
2023-03-04T09:03:34.411Z,5.40
2023-03-04T09:06:03.477Z,5.40
2023-03-04T09:08:31.209Z,5.40
2023-03-04T09:10:58.793Z,5.40
2023-03-04T09:13:28.057Z,5.30
2023-03-04T09:15:55.460Z,5.40
2023-03-04T09:18:24.316Z,5.40
2023-03-04T09:20:51.720Z,5.50
2023-03-04T09:23:20.150Z,5.50
2023-03-04T09:25:49.149Z,5.60
2023-03-04T09:28:17.954Z,5.60
2023-03-04T09:30:45.382Z,5.60
2023-03-04T09:33:12.726Z,5.70
2023-03-04T09:35:40.109Z,5.70
2023-03-04T09:38:07.603Z,5.70
2023-03-04T09:40:48.170Z,5.80
2023-03-04T09:43:24.735Z,5.90
2023-03-04T09:45:58.017Z,5.90
2023-03-04T09:48:28.968Z,6.00
2023-03-04T09:51:33.910Z,6.00
2023-03-04T09:54:33.485Z,6.10
2023-03-04T09:57:17.869Z,6.20
2023-03-04T10:00:09.492Z,6.20
2023-03-04T10:02:57.860Z,6.30
2023-03-04T10:05:27.416Z,6.40
2023-03-04T10:08:31.884Z,6.50
2023-03-04T10:11:01.702Z,6.50
2023-03-04T10:13:40.370Z,6.60
2023-03-04T10:16:12.786Z,6.70
2023-03-04T10:18:48.287Z,6.60
2023-03-04T10:21:35.579Z,6.50
2023-03-04T10:24:13.469Z,6.50
2023-03-04T10:26:44.442Z,6.40
2023-03-04T10:29:17.145Z,6.40
2023-03-04T10:31:45.392Z,6.40
2023-03-04T10:34:16.018Z,6.40
2023-03-04T10:37:09.744Z,6.30
2023-03-04T10:39:45.992Z,6.30
2023-03-04T10:42:16.382Z,6.30
2023-03-04T10:44:59.383Z,6.70
2023-03-04T10:47:29.256Z,7.20
2023-03-04T10:49:59.226Z,7.50
2023-03-04T10:52:38.334Z,7.30
2023-03-04T10:55:21.339Z,7.50
2023-03-04T10:57:56.884Z,7.60
2023-03-04T11:00:36.662Z,7.40
2023-03-04T11:03:24.223Z,7.30
2023-03-04T11:06:03.214Z,7.30
2023-03-04T11:08:30.520Z,7.20
2023-03-04T11:10:57.727Z,7.30
2023-03-04T11:13:27.300Z,7.50
2023-03-04T11:15:59.054Z,7.70
2023-03-04T11:18:37.288Z,7.60
2023-03-04T11:21:07.889Z,7.60
2023-03-04T11:23:53.545Z,7.50
2023-03-04T11:26:29.611Z,7.50
2023-03-04T11:29:18.901Z,7.70
2023-03-04T11:32:00.408Z,7.40
2023-03-04T11:34:36.507Z,7.30
2023-03-04T11:37:24.912Z,7.40
2023-03-04T11:39:58.395Z,7.60
2023-03-04T11:42:50.401Z,7.50
2023-03-04T11:45:33.830Z,7.40
2023-03-04T11:48:36.251Z,7.10
2023-03-04T11:51:21.671Z,6.90
2023-03-04T11:54:34.814Z,6.90
2023-03-04T11:57:13.017Z,7.00
2023-03-04T11:59:48.496Z,7.00
2023-03-04T12:02:22.638Z,7.00
2023-03-04T12:05:22.629Z,7.20
2023-03-04T12:08:16.412Z,7.20
2023-03-04T12:10:57.929Z,7.00
2023-03-04T12:13:52.030Z,7.10
2023-03-04T12:16:43.727Z,7.10
2023-03-04T12:19:26.512Z,7.10
2023-03-04T12:22:06.308Z,7.10
2023-03-04T12:24:54.745Z,6.80
2023-03-04T12:27:46.494Z,6.40
2023-03-04T12:30:26.104Z,6.40
2023-03-04T12:32:58.304Z,6.40
2023-03-04T12:35:51.193Z,6.70
2023-03-04T12:38:36.435Z,6.90
2023-03-04T12:41:16.108Z,7.50
2023-03-04T12:43:54.650Z,7.80
2023-03-04T12:46:40.763Z,8.10
2023-03-04T12:49:24.988Z,7.90
2023-03-04T12:52:19.177Z,7.70
2023-03-04T12:54:57.748Z,7.70
2023-03-04T12:57:31.420Z,7.90
2023-03-04T13:00:18.217Z,8.10
2023-03-04T13:03:08.211Z,9.50
2023-03-04T13:05:55.979Z,10.00
2023-03-04T13:08:50.177Z,9.50
2023-03-04T13:11:26.163Z,9.00
2023-03-04T13:14:14.864Z,9.10
2023-03-04T13:16:47.681Z,9.40
2023-03-04T13:19:45.089Z,9.40
2023-03-04T13:22:37.145Z,9.60
2023-03-04T13:25:42.868Z,9.20
2023-03-04T13:28:10.017Z,8.80
2023-03-04T13:30:40.119Z,8.70
2023-03-04T13:33:10.727Z,8.70
2023-03-04T13:35:47.067Z,8.70
2023-03-04T13:38:24.656Z,8.90
2023-03-04T13:41:13.879Z,8.70
2023-03-04T13:43:54.300Z,8.50
2023-03-04T13:46:26.803Z,8.30
2023-03-04T13:48:56.918Z,8.10
2023-03-04T13:51:30.362Z,7.80
2023-03-04T13:54:00.844Z,7.70
2023-03-04T13:56:37.690Z,7.60
2023-03-04T13:59:08.559Z,7.70
2023-03-04T14:01:36.953Z,7.60
2023-03-04T14:04:19.381Z,7.50
2023-03-04T14:06:48.820Z,7.30
2023-03-04T14:09:17.190Z,7.20
2023-03-04T14:11:45.205Z,7.20
2023-03-04T14:14:44.020Z,7.20
2023-03-04T14:17:20.104Z,7.30
2023-03-04T14:19:49.699Z,7.50
2023-03-04T14:22:33.668Z,7.50
2023-03-04T14:25:03.996Z,7.50
2023-03-04T14:27:35.969Z,7.40
2023-03-04T14:30:07.964Z,7.30
2023-03-04T14:32:35.358Z,7.20
2023-03-04T14:35:18.229Z,7.00
2023-03-04T14:37:59.732Z,6.90
2023-03-04T14:40:33.565Z,6.70
2023-03-04T14:43:27.287Z,6.60
2023-03-04T14:46:00.092Z,6.60
2023-03-04T14:48:31.075Z,6.50
2023-03-04T14:51:02.398Z,6.50
2023-03-04T14:53:33.626Z,6.50
2023-03-04T14:56:10.749Z,6.50
2023-03-04T14:59:02.988Z,6.50
2023-03-04T15:01:35.233Z,6.40
2023-03-04T15:04:12.080Z,6.30
2023-03-04T15:06:49.162Z,6.30
2023-03-04T15:09:24.273Z,6.30
2023-03-04T15:12:01.914Z,6.20
2023-03-04T15:14:42.014Z,6.10
2023-03-04T15:17:32.870Z,6.00
2023-03-04T15:20:06.198Z,6.20
2023-03-04T15:22:44.871Z,6.30
2023-03-04T15:25:16.018Z,6.50
2023-03-04T15:27:45.357Z,6.60
2023-03-04T15:30:30.283Z,6.70
2023-03-04T15:32:58.709Z,6.60
2023-03-04T15:35:30.230Z,6.40
2023-03-04T15:38:01.786Z,6.40
2023-03-04T15:40:35.754Z,6.30
2023-03-04T15:43:05.419Z,6.10
2023-03-04T15:45:38.254Z,6.00
2023-03-04T15:48:08.848Z,5.90
2023-03-04T15:50:42.842Z,5.80
2023-03-04T15:53:16.308Z,5.80
2023-03-04T15:55:45.614Z,5.60
2023-03-04T15:58:13.980Z,5.50
2023-03-04T16:00:41.251Z,5.50
2023-03-04T16:03:14.811Z,5.40
2023-03-04T16:05:43.201Z,5.40
2023-03-04T16:08:14.954Z,5.40
2023-03-04T16:10:43.821Z,5.30
2023-03-04T16:13:19.844Z,5.20
2023-03-04T16:15:47.291Z,5.20
2023-03-04T16:18:16.400Z,5.10
2023-03-04T16:20:47.146Z,5.00
2023-03-04T16:23:24.983Z,4.90
2023-03-04T16:25:56.759Z,4.90
2023-03-04T16:28:24.009Z,4.80
2023-03-04T16:30:51.826Z,4.80
2023-03-04T16:33:19.769Z,4.70
2023-03-04T16:35:47.267Z,4.70
2023-03-04T16:38:25.988Z,4.60
2023-03-04T16:40:54.462Z,4.50
2023-03-04T16:43:22.436Z,4.50
2023-03-04T16:45:50.002Z,4.40
2023-03-04T16:48:17.439Z,4.40
2023-03-04T16:50:44.785Z,4.30
2023-03-04T16:53:34.305Z,4.30
2023-03-04T16:56:05.576Z,4.20
2023-03-04T16:58:34.181Z,4.20
2023-03-04T17:01:02.313Z,4.10
2023-03-04T17:03:29.492Z,4.10
2023-03-04T17:05:56.688Z,4.10
2023-03-04T17:08:23.832Z,4.10
2023-03-04T17:10:52.408Z,4.10
2023-03-04T17:13:19.631Z,4.00
2023-03-04T17:15:47.213Z,3.90
2023-03-04T17:18:14.682Z,3.90
2023-03-04T17:20:42.076Z,3.90
2023-03-04T17:23:09.402Z,3.90
2023-03-04T17:25:36.853Z,3.90
2023-03-04T17:28:04.434Z,3.80
2023-03-04T17:30:31.705Z,3.80
2023-03-04T17:32:59.239Z,3.80
2023-03-04T17:35:26.827Z,3.80
2023-03-04T17:37:54.029Z,3.70
2023-03-04T17:40:21.327Z,3.70
2023-03-04T17:42:50.812Z,3.70
2023-03-04T17:45:18.199Z,3.60
2023-03-04T17:47:45.394Z,3.60
2023-03-04T17:50:12.926Z,3.60
2023-03-04T17:52:40.119Z,3.60
2023-03-04T17:55:08.199Z,3.50
2023-03-04T17:57:37.313Z,3.50
2023-03-04T18:00:06.590Z,3.50
2023-03-04T18:02:33.946Z,3.50
2023-03-04T18:05:06.538Z,3.40
2023-03-04T18:07:33.987Z,3.30
2023-03-04T18:10:01.248Z,3.30
2023-03-04T18:12:28.457Z,3.30
2023-03-04T18:14:56.193Z,3.30
2023-03-04T18:17:23.629Z,3.20
2023-03-04T18:19:50.824Z,3.20
2023-03-04T18:22:18.051Z,3.20
2023-03-04T18:24:46.994Z,3.30
2023-03-04T18:27:14.204Z,3.30
2023-03-04T18:29:41.385Z,3.30
2023-03-04T18:32:08.595Z,3.30
2023-03-04T18:34:35.928Z,3.30
2023-03-04T18:37:28.350Z,3.20
2023-03-04T18:39:55.872Z,3.20
2023-03-04T18:42:23.071Z,3.20
2023-03-04T18:45:18.212Z,3.10
2023-03-04T18:47:49.018Z,3.10
2023-03-04T18:50:16.723Z,3.10
2023-03-04T18:52:46.768Z,2.90
2023-03-04T18:55:14.605Z,2.80
2023-03-04T18:57:46.743Z,2.60
2023-03-04T19:00:20.444Z,2.40
2023-03-04T19:02:52.417Z,2.40
2023-03-04T19:05:27.531Z,2.40
2023-03-04T19:07:54.934Z,2.50
2023-03-04T19:10:23.547Z,2.60
2023-03-04T19:12:50.898Z,2.60
2023-03-04T19:15:18.464Z,2.70
2023-03-04T19:17:46.047Z,2.70
2023-03-04T19:20:14.617Z,2.80
2023-03-04T19:22:42.693Z,2.70
2023-03-04T19:25:10.390Z,2.80
2023-03-04T19:27:38.100Z,2.70
2023-03-04T19:30:07.139Z,2.80
2023-03-04T19:32:34.396Z,2.80
2023-03-04T19:35:01.834Z,2.80
2023-03-04T19:37:31.586Z,2.90
2023-03-04T19:39:58.825Z,2.90
2023-03-04T19:42:26.011Z,2.90
2023-03-04T19:44:53.304Z,2.90
2023-03-04T19:47:20.489Z,3.00
2023-03-04T19:49:48.028Z,3.00
2023-03-04T19:52:15.229Z,3.00
2023-03-04T19:54:42.595Z,3.10
2023-03-04T19:57:10.219Z,3.10
2023-03-04T19:59:37.452Z,3.10
2023-03-04T20:02:04.688Z,3.10
2023-03-04T20:04:31.928Z,3.20
2023-03-04T20:06:59.174Z,3.20
2023-03-04T20:09:26.445Z,3.20
2023-03-04T20:11:59.067Z,3.20
2023-03-04T20:14:27.400Z,3.20
2023-03-04T20:17:00.471Z,3.20
2023-03-04T20:19:27.927Z,3.20
2023-03-04T20:21:56.239Z,3.20
2023-03-04T20:24:24.419Z,3.20
2023-03-04T20:26:52.556Z,3.20
2023-03-04T20:29:20.163Z,3.20
2023-03-04T20:31:47.924Z,3.20
2023-03-04T20:34:16.408Z,3.20
2023-03-04T20:36:43.707Z,3.20
2023-03-04T20:39:27.058Z,3.20
2023-03-04T20:41:57.181Z,3.20
2023-03-04T20:44:26.910Z,3.20
2023-03-04T20:46:54.203Z,3.10
2023-03-04T20:49:24.220Z,3.10
2023-03-04T20:51:57.927Z,3.10
2023-03-04T20:54:25.652Z,3.10
2023-03-04T20:56:52.928Z,3.00
2023-03-04T20:59:20.252Z,3.00
2023-03-04T21:01:50.836Z,3.00
2023-03-04T21:04:19.544Z,3.00
2023-03-04T21:06:47.463Z,3.00
2023-03-04T21:09:17.522Z,3.00
2023-03-04T21:11:45.745Z,3.00
2023-03-04T21:14:14.938Z,3.00
2023-03-04T21:16:42.891Z,3.10
2023-03-04T21:19:31.140Z,3.10
2023-03-04T21:22:00.412Z,3.00
2023-03-04T21:24:33.396Z,2.90
2023-03-04T21:27:01.463Z,2.70
2023-03-04T21:29:29.625Z,2.60
2023-03-04T21:32:22.336Z,2.60
2023-03-04T21:34:52.184Z,2.50
2023-03-04T21:37:41.719Z,2.50
2023-03-04T21:40:09.957Z,2.40
2023-03-04T21:42:37.702Z,2.40
2023-03-04T21:45:06.739Z,2.40
2023-03-04T21:47:34.567Z,2.40
2023-03-04T21:50:01.900Z,2.40
2023-03-04T21:52:30.068Z,2.40
2023-03-04T21:54:57.356Z,2.30
2023-03-04T21:57:24.610Z,2.20
2023-03-04T21:59:51.834Z,2.10
2023-03-04T22:02:22.382Z,2.10
2023-03-04T22:04:49.689Z,2.10
2023-03-04T22:07:16.971Z,2.20
2023-03-04T22:09:44.165Z,2.20
2023-03-04T22:12:11.716Z,2.10
2023-03-04T22:14:39.199Z,2.20
2023-03-04T22:17:06.588Z,2.20
2023-03-04T22:19:33.930Z,2.20
2023-03-04T22:22:01.106Z,2.20
2023-03-04T22:24:29.072Z,2.30
2023-03-04T22:26:57.556Z,2.20
2023-03-04T22:29:25.192Z,2.30
2023-03-04T22:31:52.911Z,2.30
2023-03-04T22:34:20.268Z,2.30
2023-03-04T22:36:47.550Z,2.30
2023-03-04T22:39:19.134Z,2.40
2023-03-04T22:41:49.533Z,2.30
2023-03-04T22:44:16.798Z,2.30
2023-03-04T22:46:44.655Z,2.30
2023-03-04T22:49:13.868Z,2.30
2023-03-04T22:51:43.987Z,2.40
2023-03-04T22:54:15.851Z,2.40
2023-03-04T22:56:43.474Z,2.30
2023-03-04T22:59:36.435Z,2.30
2023-03-04T23:02:04.669Z,2.30
2023-03-04T23:04:32.901Z,2.30
2023-03-04T23:07:00.068Z,2.30
2023-03-04T23:09:27.399Z,2.20
2023-03-04T23:11:54.744Z,2.20
2023-03-04T23:14:22.426Z,2.20
2023-03-04T23:16:49.818Z,2.20
2023-03-04T23:19:17.658Z,2.20
2023-03-04T23:21:44.977Z,2.20
2023-03-04T23:24:12.814Z,2.20
2023-03-04T23:26:41.972Z,2.20
2023-03-04T23:29:13.382Z,2.20
2023-03-04T23:31:40.850Z,2.30
2023-03-04T23:34:08.293Z,2.30
2023-03-04T23:36:37.492Z,2.30
2023-03-04T23:39:06.619Z,2.30
2023-03-04T23:41:34.474Z,2.30
2023-03-04T23:44:02.228Z,2.20
2023-03-04T23:46:29.855Z,2.30
2023-03-04T23:48:57.784Z,2.30
2023-03-04T23:51:28.488Z,2.30
2023-03-04T23:53:56.588Z,2.30
2023-03-04T23:56:27.430Z,2.30
2023-03-04T23:58:55.370Z,2.30
